»·PEaware :: N46299 KSMX-KBFL

N46299 :: KSMX-KBFL

FLIGHT INFORMATION

Flight Status: Arrived
Operator: Privately registered:
United States
More flights under this callsign
Pilot: Victor C. (32144)
Aircraft: CESSNA 172 SKYHAWK
(C172)
More flights by this aircraft type
Origin: KSMX Santa Maria Pub/Capt Hancock
United States
Destination: KBFL Meadows
United States
More flights between these airports :: More routes between these airports
Route: KSMX FLW KBFL
File this flight plan on PilotEdge
Remarks: CAT 5
Altitude:
(Current/Filed)
7,500ft
Speed:
(Current/Filed)
110kts
Departed: 05-Nov-20 11:56 AM
Arrived: 05-Nov-20 12:53 PM
Distance/Time
Traveled:
76nm/0:56
Distance/Time
To Go:
Arrived

Flight Plot

Page will automatically refresh every two minutes.


Map Options




Map Legend


Flown Route
Filed Route
Departure Airport
Arrival Airport
Navaid (VOR, NDB)
Fix

Horizontal Profiles

Position Reports

Time Latitude Longitude Heading Altitude Ground
Speed
05-Nov-20 11:38 34.902766 -120.454408 198 264ft 0kts
05-Nov-20 11:39 34.902766 -120.454408 198 264ft 0kts
05-Nov-20 11:41 34.902766 -120.454408 198 264ft 0kts
05-Nov-20 11:42 34.902766 -120.454408 198 264ft 0kts
05-Nov-20 11:43 34.902766 -120.454408 198 264ft 0kts
05-Nov-20 11:44 34.902766 -120.454408 198 264ft 0kts
05-Nov-20 11:45 34.902766 -120.454408 198 264ft 0kts
05-Nov-20 11:46 34.901695 -120.454021 136 264ft 17kts
05-Nov-20 11:47 34.896274 -120.447553 133 264ft 28kts
05-Nov-20 11:48 34.893615 -120.444900 183 264ft 0kts
05-Nov-20 11:49 34.893615 -120.444900 183 264ft 0kts
05-Nov-20 11:50 34.893615 -120.444900 183 264ft 0kts
05-Nov-20 11:51 34.893615 -120.444900 183 264ft 0kts
05-Nov-20 11:52 34.893615 -120.444900 183 264ft 0kts
05-Nov-20 11:53 34.893615 -120.444900 183 264ft 0kts
05-Nov-20 11:54 34.893615 -120.444900 183 264ft 0kts
05-Nov-20 11:55 34.893586 -120.444904 186 264ft 0kts
05-Nov-20 11:56 34.893960 -120.447249 316 264ft 49kts
05-Nov-20 11:56 34.908941 -120.465329 313 727ft 102kts
05-Nov-20 11:58 34.934529 -120.454072 33 1950ft 80kts
05-Nov-20 11:58 34.946871 -120.444111 75 2819ft 69kts
05-Nov-20 12:00 34.941254 -120.418166 96 3901ft 70kts
05-Nov-20 12:00 34.936932 -120.393340 113 4241ft 111kts
05-Nov-20 12:01 34.929999 -120.365200 103 5410ft 72kts
05-Nov-20 12:02 34.923620 -120.346572 76 6228ft 65kts
05-Nov-20 12:03 34.940336 -120.329898 29 6286ft 131kts
05-Nov-20 12:04 34.967723 -120.310598 74 6273ft 96kts
05-Nov-20 12:05 34.973717 -120.287899 76 6517ft 73kts
05-Nov-20 12:06 34.981007 -120.258750 75 6821ft 111kts
05-Nov-20 12:07 34.990122 -120.222152 75 7089ft 120kts
05-Nov-20 12:08 34.999511 -120.183975 75 7095ft 106kts
05-Nov-20 12:09 35.007808 -120.151090 75 7099ft 97kts
05-Nov-20 12:10 35.015901 -120.119715 71 7098ft 96kts
05-Nov-20 12:11 35.025628 -120.089383 71 7073ft 97kts
05-Nov-20 12:12 35.035969 -120.056767 71 6896ft 106kts
05-Nov-20 12:13 35.046771 -120.022360 71 6702ft 108kts
05-Nov-20 12:14 35.057569 -119.987557 71 6502ft 110kts
05-Nov-20 12:15 35.068393 -119.952513 71 6305ft 110kts
05-Nov-20 12:16 35.079148 -119.917475 71 6291ft 111kts
05-Nov-20 12:17 35.090012 -119.881945 71 6292ft 111kts
05-Nov-20 12:18 35.102507 -119.847021 65 6290ft 112kts
05-Nov-20 12:19 35.116617 -119.812721 65 6289ft 112kts
05-Nov-20 12:20 35.130676 -119.778445 65 6284ft 112kts
05-Nov-20 12:21 35.144697 -119.744195 65 6280ft 112kts
05-Nov-20 12:22 35.158658 -119.709875 65 6279ft 112kts
05-Nov-20 12:23 35.172632 -119.675481 65 6274ft 113kts
05-Nov-20 12:24 35.186661 -119.640845 65 6270ft 113kts
05-Nov-20 12:25 35.200578 -119.606478 65 6265ft 112kts
05-Nov-20 12:26 35.214450 -119.572020 65 6259ft 113kts
05-Nov-20 12:27 35.229620 -119.538167 60 6255ft 114kts
05-Nov-20 12:28 35.233888 -119.501796 90 6253ft 112kts
05-Nov-20 12:29 35.234403 -119.463567 85 6248ft 112kts
05-Nov-20 12:30 35.237258 -119.425228 85 6243ft 112kts
05-Nov-20 12:31 35.240084 -119.386809 85 6237ft 112kts
05-Nov-20 12:32 35.244395 -119.348853 78 6229ft 112kts
05-Nov-20 12:33 35.252821 -119.311922 72 6231ft 113kts
05-Nov-20 12:34 35.263030 -119.275165 72 6147ft 119kts
05-Nov-20 12:35 35.274191 -119.234225 72 5637ft 123kts
05-Nov-20 12:36 35.283849 -119.197855 72 4913ft 106kts
05-Nov-20 12:37 35.292455 -119.163975 72 4208ft 103kts
05-Nov-20 12:38 35.300806 -119.129834 71 3578ft 108kts
05-Nov-20 12:39 35.309395 -119.093653 72 2881ft 113kts
05-Nov-20 12:40 35.318068 -119.056332 73 2210ft 114kts
05-Nov-20 12:41 35.342448 -119.037497 15 1728ft 99kts
05-Nov-20 12:42 35.363537 -119.051096 297 1733ft 91kts
05-Nov-20 12:43 35.372517 -119.080406 279 1808ft 86kts
05-Nov-20 12:44 35.373982 -119.106834 264 2296ft 78kts
05-Nov-20 12:45 35.384716 -119.126306 8 2810ft 75kts
05-Nov-20 12:46 35.408363 -119.116762 31 2926ft 103kts
05-Nov-20 12:47 35.431071 -119.096837 85 2394ft 119kts
05-Nov-20 12:48 35.415832 -119.064266 140 1457ft 94kts
05-Nov-20 12:49 35.399561 -119.045049 105 1212ft 82kts
05-Nov-20 12:50 35.414547 -119.033527 328 969ft 78kts
05-Nov-20 12:51 35.430604 -119.052346 313 580ft 72kts
05-Nov-20 12:52 35.440290 -119.063349 18 500ft 19kts
05-Nov-20 12:53 35.440687 -119.062934 41 503ft 0kts
05-Nov-20 12:54 35.440687 -119.062934 41 503ft 0kts
05-Nov-20 12:55 35.440687 -119.062934 41 503ft 0kts
05-Nov-20 12:56 35.440687 -119.062934 41 503ft 0kts
05-Nov-20 12:57 35.440687 -119.062934 41 503ft 0kts
05-Nov-20 12:58 35.440689 -119.062932 41 503ft 0kts
05-Nov-20 12:59 35.440755 -119.062848 52 503ft 0kts
05-Nov-20 13:00 35.436781 -119.057762 136 496ft 28kts
05-Nov-20 13:01 35.432188 -119.051958 136 495ft 43kts
05-Nov-20 13:02 35.430114 -119.047296 134 500ft 0kts
05-Nov-20 13:03 35.430114 -119.047296 134 500ft 0kts
05-Nov-20 13:04 35.430114 -119.047296 134 500ft 0kts
05-Nov-20 13:05 35.430114 -119.047296 134 500ft 0kts
05-Nov-20 13:06 35.430114 -119.047296 134 500ft 0kts

Navigation Log

Ident Type
Flight plan parsing failed, navigation log unavailable